Time;durP1;ratioP1;P1;durP2;ratioP2;P2;SDS_P1;SDS_P2;PMS_P1;PMS_P2;Temp;Humidity;BMP_temperature;BMP_pressure;BME280_temperature;BME280_humidity;BME280_pressure;Samples;Min_cycle;Max_cycle;Signal;HPM_P1;HPM_P2
2022/01/04 00:00:55;;;;;;;1.10;0.47;;;10.30;99.90;;;;;;5072331;28;20207;-74
2022/01/04 00:03:20;;;;;;;0.70;0.40;;;10.30;99.90;;;;;;5070725;28;20333;-75
2022/01/04 00:05:46;;;;;;;0.70;0.50;;;10.30;99.90;;;;;;5075929;28;20183;-75
2022/01/04 00:08:14;;;;;;;0.50;0.40;;;10.30;99.90;;;;;;5091927;28;20168;-74
2022/01/04 00:10:42;;;;;;;0.50;0.40;;;10.30;99.90;;;;;;5073269;28;20198;-75
2022/01/04 00:13:23;;;;;;;0.80;0.40;;;10.30;99.90;;;;;;5071243;28;20215;-72
2022/01/04 00:15:54;;;;;;;1.03;0.60;;;10.30;99.90;;;;;;5078164;28;20176;-73
2022/01/04 00:18:20;;;;;;;2.87;1.77;;;10.20;99.90;;;;;;5073561;28;20190;-76
2022/01/04 00:20:47;;;;;;;3.80;1.77;;;10.30;99.90;;;;;;5075146;28;20280;-72
2022/01/04 00:23:13;;;;;;;1.93;1.10;;;10.20;99.90;;;;;;5080041;28;20187;-71
2022/01/04 00:25:38;;;;;;;0.90;0.70;;;10.20;99.90;;;;;;5080407;28;20210;-75
2022/01/04 00:28:07;;;;;;;1.30;0.80;;;10.20;99.90;;;;;;5081468;28;20200;-74
2022/01/04 00:30:37;;;;;;;2.50;1.30;;;10.20;99.90;;;;;;5080298;28;20203;-74
2022/01/04 00:33:07;;;;;;;1.37;0.77;;;10.20;99.90;;;;;;5078629;28;20191;-73
2022/01/04 00:35:35;;;;;;;0.80;0.50;;;10.20;99.90;;;;;;5080056;28;20180;-75
2022/01/04 00:38:03;;;;;;;0.70;0.40;;;10.10;99.90;;;;;;5112130;28;20193;-73
2022/01/04 00:40:29;;;;;;;0.83;0.30;;;10.10;99.90;;;;;;5077196;28;20266;-73
2022/01/04 00:42:55;;;;;;;0.97;0.47;;;10.10;99.90;;;;;;5080568;28;20274;-73
2022/01/04 00:45:24;;;;;;;0.57;0.40;;;10.10;99.90;;;;;;5081786;28;20187;-75
2022/01/04 00:50:21;;;;;;;0.50;0.40;;;10.20;99.90;;;;;;5096669;28;20215;-76
2022/01/04 00:52:49;;;;;;;0.77;0.40;;;10.20;99.90;;;;;;5104722;28;20183;-75
2022/01/04 00:55:17;;;;;;;0.77;0.40;;;10.20;99.90;;;;;;5078261;28;20330;-73
2022/01/04 00:57:45;;;;;;;0.35;0.30;;;10.20;99.90;;;;;;5111152;28;20188;-68
2022/01/04 01:00:15;;;;;;;0.63;0.30;;;10.20;99.90;;;;;;5108268;28;20192;-72
2022/01/04 01:02:41;;;;;;;1.00;0.33;;;10.20;99.90;;;;;;5074164;28;20219;-73
2022/01/04 01:05:11;;;;;;;0.97;0.40;;;10.20;99.90;;;;;;5075994;28;20180;-74
2022/01/04 01:07:40;;;;;;;0.40;0.40;;;10.20;99.90;;;;;;5075844;28;20184;-74
2022/01/04 01:12:41;;;;;;;0.77;0.43;;;10.20;99.90;;;;;;5087150;28;20176;-73
2022/01/04 01:15:12;;;;;;;0.40;0.30;;;10.10;99.90;;;;;;5078511;28;20256;-74
2022/01/04 01:17:38;;;;;;;1.20;0.50;;;10.10;99.90;;;;;;5081680;28;20204;-74
2022/01/04 01:20:09;;;;;;;1.27;0.30;;;10.10;99.90;;;;;;5079410;28;20229;-73
2022/01/04 01:22:38;;;;;;;0.70;0.40;;;10.10;99.90;;;;;;5113251;27;20214;-71
2022/01/04 01:25:07;;;;;;;0.40;0.33;;;10.10;99.90;;;;;;5082481;28;20210;-72
2022/01/04 01:27:38;;;;;;;0.83;0.50;;;10.00;99.90;;;;;;5081784;28;20188;-71
2022/01/04 01:30:07;;;;;;;0.30;0.27;;;10.00;99.90;;;;;;5078459;28;20211;-71
2022/01/04 01:32:35;;;;;;;1.10;0.60;;;10.10;99.90;;;;;;5080104;28;20179;-74
2022/01/04 01:35:00;;;;;;;0.30;0.30;;;10.00;99.90;;;;;;5076737;28;20238;-72
2022/01/04 01:37:27;;;;;;;0.47;0.40;;;10.00;99.90;;;;;;5073790;28;20200;-73
2022/01/04 01:39:53;;;;;;;0.57;0.47;;;10.00;99.90;;;;;;5078099;28;20279;-74
2022/01/04 01:42:19;;;;;;;1.17;0.40;;;10.00;99.90;;;;;;5075937;28;20207;-68
2022/01/04 01:44:44;;;;;;;0.60;0.40;;;10.10;99.90;;;;;;5078093;28;20187;-73
2022/01/04 01:47:10;;;;;;;1.00;0.40;;;10.10;99.90;;;;;;5073978;28;20183;-71
2022/01/04 01:49:39;;;;;;;0.40;0.30;;;10.10;99.90;;;;;;5076994;28;20229;-74
2022/01/04 01:52:05;;;;;;;0.60;0.40;;;10.10;99.90;;;;;;5072975;28;20168;-71
2022/01/04 01:54:31;;;;;;;1.13;0.40;;;10.10;99.90;;;;;;5077409;28;20248;-72
2022/01/04 01:57:01;;;;;;;0.43;0.40;;;10.10;99.90;;;;;;5108813;28;20287;-73
2022/01/04 01:59:27;;;;;;;0.50;0.20;;;10.10;99.90;;;;;;5088652;28;20173;-70
2022/01/04 02:01:56;;;;;;;0.53;0.40;;;10.10;99.90;;;;;;5076502;28;20187;-72
2022/01/04 02:04:24;;;;;;;0.32;0.28;;;10.10;99.90;;;;;;5077025;28;20196;-74
2022/01/04 02:06:52;;;;;;;0.40;0.30;;;10.10;99.90;;;;;;5075429;28;20438;-72
2022/01/04 02:09:18;;;;;;;0.50;0.30;;;10.10;99.90;;;;;;5075089;28;20183;-71
2022/01/04 02:11:46;;;;;;;0.40;0.30;;;10.10;99.90;;;;;;5079745;28;20225;-72
2022/01/04 02:14:12;;;;;;;0.50;0.30;;;10.10;99.90;;;;;;5075520;28;20200;-72
2022/01/04 02:16:40;;;;;;;0.50;0.40;;;10.10;99.90;;;;;;5083624;28;20176;-74
2022/01/04 02:19:10;;;;;;;0.80;0.47;;;10.10;99.90;;;;;;5076733;28;20213;-71
2022/01/04 02:21:36;;;;;;;1.17;0.50;;;10.10;99.90;;;;;;5075950;28;20192;-72
2022/01/04 02:24:03;;;;;;;0.73;0.40;;;10.10;99.90;;;;;;5076909;28;20180;-74
2022/01/04 02:26:34;;;;;;;1.43;0.60;;;10.10;99.90;;;;;;5075931;28;20224;-74
2022/01/04 02:29:02;;;;;;;0.63;0.50;;;10.10;99.90;;;;;;5073816;28;20279;-74
2022/01/04 02:31:27;;;;;;;0.70;0.47;;;10.10;99.90;;;;;;5072164;28;20274;-73
2022/01/04 02:33:55;;;;;;;0.90;0.40;;;10.10;99.90;;;;;;5076063;28;20397;-74
2022/01/04 02:36:22;;;;;;;0.70;0.50;;;10.10;99.90;;;;;;5075954;28;20233;-74
2022/01/04 02:38:50;;;;;;;1.17;0.43;;;10.10;99.90;;;;;;5073422;28;20191;-72
2022/01/04 02:41:15;;;;;;;1.10;0.50;;;10.10;99.90;;;;;;5069763;28;20184;-72
2022/01/04 02:43:44;;;;;;;0.93;0.50;;;10.10;99.90;;;;;;5108013;28;20229;-71
2022/01/04 02:46:12;;;;;;;0.50;0.40;;;10.10;99.90;;;;;;5072601;28;20219;-71
2022/01/04 02:48:42;;;;;;;1.67;0.40;;;10.10;99.90;;;;;;5074015;28;20180;-71
2022/01/04 02:51:10;;;;;;;0.60;0.50;;;10.10;99.90;;;;;;5107318;28;20200;-74
2022/01/04 02:53:39;;;;;;;1.10;0.40;;;10.10;99.90;;;;;;5076663;28;20187;-74
2022/01/04 02:56:04;;;;;;;1.00;0.60;;;10.10;99.90;;;;;;5107272;28;20262;-73
2022/01/04 02:58:30;;;;;;;0.90;0.50;;;10.10;99.90;;;;;;5072778;28;20263;-72
2022/01/04 03:01:00;;;;;;;1.10;0.50;;;10.10;99.90;;;;;;5081622;28;20222;-73
2022/01/04 03:03:28;;;;;;;0.97;0.57;;;10.10;99.90;;;;;;5075167;28;20252;-71
2022/01/04 03:05:57;;;;;;;0.90;0.50;;;10.10;99.90;;;;;;5074220;28;20183;-73
2022/01/04 03:08:25;;;;;;;0.77;0.53;;;10.00;99.90;;;;;;5077575;28;20363;-73
2022/01/04 03:10:56;;;;;;;1.10;0.70;;;10.00;99.90;;;;;;5070014;28;20196;-72
2022/01/04 03:13:23;;;;;;;0.90;0.60;;;10.00;99.90;;;;;;5073554;28;20180;-74
2022/01/04 03:15:51;;;;;;;1.50;0.60;;;10.00;99.90;;;;;;5062608;28;20176;-70
2022/01/04 03:18:17;;;;;;;0.70;0.50;;;10.00;99.90;;;;;;5076832;28;20285;-74
2022/01/04 03:20:42;;;;;;;0.93;0.50;;;10.00;99.90;;;;;;5093314;28;20286;-71
2022/01/04 03:23:10;;;;;;;1.20;0.43;;;10.00;99.90;;;;;;5074552;28;20455;-74
2022/01/04 03:25:37;;;;;;;2.10;0.40;;;10.00;99.90;;;;;;5067846;28;20188;-73
2022/01/04 03:28:05;;;;;;;1.50;0.47;;;10.00;99.90;;;;;;5072539;28;20219;-73
2022/01/04 03:30:34;;;;;;;0.60;0.40;;;10.00;99.90;;;;;;5075697;28;20203;-72
2022/01/04 03:33:05;;;;;;;0.80;0.50;;;10.00;99.90;;;;;;5075064;28;20207;-73
2022/01/04 03:35:35;;;;;;;0.90;0.60;;;10.00;99.90;;;;;;5075989;28;20200;-72
2022/01/04 03:38:01;;;;;;;1.10;0.50;;;10.00;99.90;;;;;;5071516;28;20190;-74
2022/01/04 03:40:33;;;;;;;2.20;0.60;;;10.00;99.90;;;;;;5077571;28;20222;-69
2022/01/04 03:43:02;;;;;;;0.67;0.50;;;10.00;99.90;;;;;;5074301;28;20183;-72
2022/01/04 03:45:32;;;;;;;0.53;0.43;;;10.00;99.90;;;;;;5076223;28;20198;-74
2022/01/04 03:48:00;;;;;;;1.13;0.30;;;10.00;99.90;;;;;;5076139;28;20184;-73
2022/01/04 03:50:25;;;;;;;0.40;0.40;;;10.00;99.90;;;;;;5077162;28;20210;-73
2022/01/04 03:52:56;;;;;;;0.43;0.40;;;9.90;99.90;;;;;;5076174;28;20271;-71
2022/01/04 03:55:23;;;;;;;0.90;0.40;;;9.90;99.90;;;;;;5075425;28;20272;-71
2022/01/04 03:57:51;;;;;;;1.20;0.50;;;9.90;99.90;;;;;;5071243;28;20168;-72
2022/01/04 04:00:19;;;;;;;1.03;0.40;;;9.90;99.90;;;;;;5092693;28;20188;-72
2022/01/04 04:02:47;;;;;;;1.05;0.70;;;9.90;99.90;;;;;;5091435;28;20357;-73
2022/01/04 04:05:15;;;;;;;1.07;0.47;;;9.90;99.90;;;;;;5061354;28;20185;-72
2022/01/04 04:07:43;;;;;;;1.10;0.50;;;9.90;99.90;;;;;;5074810;28;20195;-73
2022/01/04 04:10:11;;;;;;;0.60;0.50;;;9.80;99.90;;;;;;5073025;28;20210;-73
2022/01/04 04:12:42;;;;;;;0.63;0.50;;;9.80;99.90;;;;;;5080723;28;20176;-71
2022/01/04 04:15:11;;;;;;;0.53;0.40;;;9.80;99.90;;;;;;5068148;28;20180;-72
2022/01/04 04:17:44;;;;;;;0.50;0.43;;;9.80;99.90;;;;;;5074911;28;20276;-66
2022/01/04 04:20:10;;;;;;;1.10;0.50;;;9.80;99.90;;;;;;5072498;28;20183;-73
2022/01/04 04:22:38;;;;;;;0.37;0.37;;;9.80;99.90;;;;;;5077358;28;20186;-73
2022/01/04 04:25:04;;;;;;;0.80;0.50;;;9.80;99.90;;;;;;5075535;28;20196;-71
2022/01/04 04:27:32;;;;;;;0.83;0.70;;;9.80;99.90;;;;;;5074358;28;20184;-73
2022/01/04 04:30:00;;;;;;;1.00;0.57;;;9.80;99.90;;;;;;5071563;28;20219;-69
2022/01/04 04:32:31;;;;;;;0.77;0.50;;;9.70;99.90;;;;;;5074700;28;20225;-68
2022/01/04 04:34:57;;;;;;;0.80;0.63;;;9.70;99.90;;;;;;5093789;28;20433;-73
2022/01/04 04:37:23;;;;;;;0.80;0.70;;;9.70;99.90;;;;;;5074660;28;20192;-71
2022/01/04 04:39:49;;;;;;;1.00;0.60;;;9.70;99.90;;;;;;5071529;28;20320;-73
2022/01/04 04:42:14;;;;;;;0.90;0.60;;;9.70;99.90;;;;;;5072306;28;20241;-73
2022/01/04 04:44:44;;;;;;;4.17;3.07;;;9.70;99.90;;;;;;5088883;28;20192;-72
2022/01/04 04:47:09;;;;;;;2.10;1.70;;;9.70;99.90;;;;;;5072638;28;20176;-71
2022/01/04 04:49:37;;;;;;;1.30;1.20;;;9.70;99.90;;;;;;5067298;28;20184;-73
2022/01/04 04:52:08;;;;;;;1.07;0.93;;;9.60;99.90;;;;;;5072717;28;20245;-73
2022/01/04 04:54:38;;;;;;;0.90;0.80;;;9.60;99.90;;;;;;5068048;28;20215;-70
2022/01/04 04:57:04;;;;;;;1.07;0.77;;;9.60;99.90;;;;;;5074021;28;20203;-71
2022/01/04 04:59:32;;;;;;;1.27;0.70;;;9.60;99.90;;;;;;5074679;28;20204;-73
2022/01/04 05:01:58;;;;;;;0.90;0.60;;;9.60;99.90;;;;;;5070554;28;20242;-73
2022/01/04 05:04:26;;;;;;;0.97;0.70;;;9.60;99.90;;;;;;5073485;28;20219;-73
2022/01/04 05:06:53;;;;;;;1.27;0.50;;;9.60;99.90;;;;;;5073357;28;20407;-72
2022/01/04 05:09:21;;;;;;;1.20;0.57;;;9.60;99.90;;;;;;5074093;28;20177;-73
2022/01/04 05:11:48;;;;;;;0.60;0.50;;;9.60;99.90;;;;;;5072080;28;20235;-69
2022/01/04 05:14:16;;;;;;;0.70;0.40;;;9.60;99.90;;;;;;5076126;28;20206;-73
2022/01/04 05:16:42;;;;;;;0.50;0.37;;;9.60;99.90;;;;;;5075713;28;20192;-73
2022/01/04 05:19:07;;;;;;;0.77;0.50;;;9.60;99.90;;;;;;5077082;28;20188;-72
2022/01/04 05:21:38;;;;;;;0.73;0.40;;;9.60;99.90;;;;;;5078437;28;20176;-73
2022/01/04 05:24:06;;;;;;;0.80;0.57;;;9.60;99.90;;;;;;5076951;28;20188;-73
2022/01/04 05:26:37;;;;;;;2.17;0.43;;;9.60;99.90;;;;;;5078151;28;20199;-72
2022/01/04 05:29:03;;;;;;;0.47;0.33;;;9.50;99.90;;;;;;5077794;28;20208;-72
2022/01/04 05:31:29;;;;;;;0.80;0.40;;;9.60;99.90;;;;;;5074196;28;20204;-71
2022/01/04 05:33:54;;;;;;;0.67;0.50;;;9.60;99.90;;;;;;5074756;28;20265;-73
2022/01/04 05:36:20;;;;;;;0.80;0.40;;;9.50;99.90;;;;;;5076283;28;20176;-72
2022/01/04 05:38:48;;;;;;;0.70;0.50;;;9.50;99.90;;;;;;5076667;28;20502;-73
2022/01/04 05:41:16;;;;;;;1.23;0.67;;;9.60;99.90;;;;;;5063081;28;20196;-73
2022/01/04 05:43:46;;;;;;;1.17;0.50;;;9.50;99.90;;;;;;5078438;28;20270;-73
2022/01/04 05:46:12;;;;;;;1.20;0.60;;;9.50;99.90;;;;;;5077298;28;20253;-78
2022/01/04 05:48:40;;;;;;;0.57;0.40;;;9.50;99.90;;;;;;5083940;28;20357;-83
2022/01/04 05:51:05;;;;;;;1.10;0.50;;;9.50;99.90;;;;;;5080409;28;20441;-82
2022/01/04 05:53:33;;;;;;;0.40;0.40;;;9.50;99.90;;;;;;5078594;28;20192;-85
2022/01/04 05:55:59;;;;;;;0.73;0.50;;;9.40;99.90;;;;;;5081687;28;20196;-77
2022/01/04 05:58:27;;;;;;;0.83;0.60;;;9.40;99.90;;;;;;5079459;28;20183;-79
2022/01/04 06:00:55;;;;;;;1.00;0.50;;;9.40;99.90;;;;;;5084060;28;20355;-88
2022/01/04 06:03:22;;;;;;;0.90;0.50;;;9.40;99.90;;;;;;5078892;28;20270;-83
2022/01/04 06:05:48;;;;;;;0.43;0.40;;;9.40;99.90;;;;;;5078441;28;20298;-85
2022/01/04 06:08:14;;;;;;;0.67;0.40;;;9.40;99.90;;;;;;5071807;28;20284;-83
2022/01/04 06:10:43;;;;;;;0.97;0.40;;;9.40;99.90;;;;;;5108513;27;20239;-86
2022/01/04 06:15:40;;;;;;;1.00;0.50;;;9.50;99.90;;;;;;5086608;28;20245;-89
2022/01/04 06:18:08;;;;;;;1.13;0.43;;;9.50;99.90;;;;;;5072773;28;20184;-86
2022/01/04 06:20:37;;;;;;;1.10;0.53;;;9.50;99.90;;;;;;5076497;28;20199;-89
2022/01/04 06:23:03;;;;;;;0.77;0.53;;;9.50;99.90;;;;;;5077246;28;20202;-88
2022/01/04 06:25:28;;;;;;;1.40;0.53;;;9.50;99.90;;;;;;5077708;28;20203;-84
2022/01/04 06:27:57;;;;;;;0.60;0.50;;;9.50;99.90;;;;;;5077408;28;20358;-88
2022/01/04 06:30:23;;;;;;;0.60;0.40;;;9.50;99.90;;;;;;5078998;28;20234;-85
2022/01/04 06:32:51;;;;;;;0.93;0.50;;;9.50;99.90;;;;;;5078963;28;20168;-84
2022/01/04 06:35:20;;;;;;;0.60;0.40;;;9.50;99.90;;;;;;5076446;28;20386;-87
2022/01/04 06:37:49;;;;;;;0.83;0.47;;;9.50;99.90;;;;;;5071643;28;20317;-86
2022/01/04 06:40:15;;;;;;;0.40;0.30;;;9.50;99.90;;;;;;5076061;28;20233;-89
2022/01/04 06:42:40;;;;;;;0.40;0.30;;;9.50;99.90;;;;;;5074002;28;20192;-80
2022/01/04 06:45:06;;;;;;;0.70;0.40;;;9.50;99.90;;;;;;5076331;28;20373;-88
2022/01/04 06:47:34;;;;;;;1.27;0.30;;;9.50;99.90;;;;;;5076284;28;20176;-86
2022/01/04 06:50:01;;;;;;;1.00;0.60;;;9.50;99.90;;;;;;5076123;28;20210;-88
2022/01/04 06:52:27;;;;;;;0.63;0.40;;;9.50;99.90;;;;;;5077181;28;20182;-89
2022/01/04 06:54:52;;;;;;;0.20;0.20;;;9.50;99.90;;;;;;5077671;28;20195;-81
2022/01/04 06:57:18;;;;;;;0.67;0.50;;;9.50;99.90;;;;;;5077885;28;20175;-87
2022/01/04 06:59:44;;;;;;;0.43;0.30;;;9.50;99.90;;;;;;5073928;28;20204;-84
2022/01/04 07:02:10;;;;;;;0.47;0.43;;;9.50;99.90;;;;;;5075326;28;20359;-88
2022/01/04 07:04:40;;;;;;;0.80;0.40;;;9.50;99.90;;;;;;5074785;28;20179;-82
2022/01/04 07:07:06;;;;;;;0.63;0.40;;;9.50;99.90;;;;;;5075239;28;20260;-85
2022/01/04 07:09:33;;;;;;;0.73;0.43;;;9.50;99.90;;;;;;5076960;28;20212;-83
2022/01/04 07:11:59;;;;;;;0.97;0.53;;;9.50;99.90;;;;;;5074997;28;20255;-82
2022/01/04 07:14:25;;;;;;;1.27;0.40;;;9.50;99.90;;;;;;5076925;28;20292;-84
2022/01/04 07:16:50;;;;;;;1.03;0.60;;;9.50;99.90;;;;;;5073019;28;20261;-81
2022/01/04 07:19:16;;;;;;;0.87;0.47;;;9.50;99.90;;;;;;5072255;28;20188;-78
2022/01/04 07:21:42;;;;;;;0.50;0.40;;;9.50;99.90;;;;;;5105956;28;20180;-80
2022/01/04 07:24:09;;;;;;;0.40;0.40;;;9.50;99.90;;;;;;5072971;28;20247;-85
2022/01/04 07:26:37;;;;;;;0.40;0.40;;;9.50;99.90;;;;;;5074657;28;20180;-74
2022/01/04 07:29:07;;;;;;;0.90;0.50;;;9.50;99.90;;;;;;5073647;28;20216;-76
2022/01/04 07:31:35;;;;;;;0.40;0.40;;;9.50;99.90;;;;;;5106594;27;20258;-70
2022/01/04 07:34:01;;;;;;;0.57;0.47;;;9.50;99.90;;;;;;5106804;28;20311;-69
2022/01/04 07:36:32;;;;;;;0.60;0.47;;;9.50;99.90;;;;;;5075371;28;20287;-70
2022/01/04 07:38:58;;;;;;;0.60;0.43;;;9.50;99.90;;;;;;5072897;28;20208;-69
2022/01/04 07:41:24;;;;;;;0.97;0.53;;;9.60;99.90;;;;;;5075115;28;20191;-70
2022/01/04 07:43:52;;;;;;;0.60;0.50;;;9.60;99.90;;;;;;5074049;28;20227;-71
2022/01/04 07:46:21;;;;;;;1.17;0.80;;;9.60;99.90;;;;;;5075213;28;20241;-70
2022/01/04 07:48:50;;;;;;;1.27;0.90;;;9.60;99.90;;;;;;5098519;28;20218;-69
2022/01/04 07:51:16;;;;;;;1.23;0.90;;;9.60;99.90;;;;;;5074429;28;20226;-71
2022/01/04 07:53:42;;;;;;;1.17;1.00;;;9.60;99.90;;;;;;5076386;28;20191;-70
2022/01/04 07:56:08;;;;;;;1.20;1.10;;;9.60;99.90;;;;;;5089853;28;20180;-71
2022/01/04 07:58:33;;;;;;;1.80;1.40;;;9.60;99.90;;;;;;5075074;28;20176;-71
2022/01/04 08:00:59;;;;;;;1.50;1.37;;;9.60;99.90;;;;;;5076360;28;20273;-71
2022/01/04 08:03:25;;;;;;;1.80;1.43;;;9.70;99.90;;;;;;5075497;28;20175;-71
2022/01/04 08:05:50;;;;;;;1.47;1.37;;;9.70;99.90;;;;;;5081543;28;20179;-71
2022/01/04 08:08:18;;;;;;;2.03;1.30;;;9.70;99.90;;;;;;5074925;28;20330;-80
2022/01/04 08:10:48;;;;;;;1.70;1.60;;;9.70;99.90;;;;;;5069794;28;20212;-80
2022/01/04 08:13:13;;;;;;;1.10;1.00;;;9.70;99.90;;;;;;5076283;28;20194;-82
2022/01/04 08:15:39;;;;;;;1.40;1.10;;;9.70;99.90;;;;;;5076410;28;20184;-81
2022/01/04 08:18:07;;;;;;;1.83;1.23;;;9.70;99.90;;;;;;5075618;28;20202;-76
2022/01/04 08:20:33;;;;;;;1.37;1.00;;;9.70;99.90;;;;;;5071624;28;20180;-82
2022/01/04 08:22:59;;;;;;;1.30;1.10;;;9.70;99.90;;;;;;5075467;28;20249;-80
2022/01/04 08:25:27;;;;;;;2.50;1.10;;;9.60;99.90;;;;;;5072055;28;20215;-81
2022/01/04 08:27:52;;;;;;;1.30;1.10;;;9.70;99.90;;;;;;5075928;28;20430;-80
2022/01/04 08:30:23;;;;;;;1.40;1.10;;;9.70;99.90;;;;;;5068602;28;20206;-82
2022/01/04 08:32:50;;;;;;;1.40;1.20;;;9.70;99.90;;;;;;5069778;28;20199;-79
2022/01/04 08:35:22;;;;;;;1.93;0.87;;;9.70;99.90;;;;;;5070633;28;20896;-81
2022/01/04 08:37:53;;;;;;;1.67;1.00;;;9.70;99.90;;;;;;5071032;28;20188;-81
2022/01/04 08:40:19;;;;;;;1.10;0.87;;;9.70;99.90;;;;;;5078126;28;20183;-80
2022/01/04 08:42:47;;;;;;;1.70;0.80;;;9.70;99.90;;;;;;5074461;28;20269;-84
2022/01/04 08:45:12;;;;;;;1.40;0.90;;;9.70;99.90;;;;;;5105438;27;20197;-80
2022/01/04 08:47:41;;;;;;;1.00;0.80;;;9.70;99.90;;;;;;5080441;28;20185;-85
2022/01/04 08:50:14;;;;;;;2.60;0.93;;;9.70;99.90;;;;;;5076153;28;20216;-80
2022/01/04 08:52:42;;;;;;;1.27;0.77;;;9.70;99.90;;;;;;5092491;28;20286;-80
2022/01/04 08:55:09;;;;;;;0.90;0.80;;;9.70;99.90;;;;;;5076829;28;20235;-85
2022/01/04 08:57:38;;;;;;;2.30;0.90;;;9.70;99.90;;;;;;5078956;28;20361;-84
2022/01/04 09:00:06;;;;;;;1.27;0.70;;;9.70;99.90;;;;;;5079061;28;20180;-85
2022/01/04 09:02:35;;;;;;;0.90;0.70;;;9.70;99.90;;;;;;5077567;28;20184;-86
2022/01/04 09:05:04;;;;;;;1.53;1.20;;;9.70;99.90;;;;;;5087788;28;20482;-84
2022/01/04 09:07:29;;;;;;;1.53;1.00;;;9.60;99.90;;;;;;5080309;28;20233;-88
2022/01/04 09:09:58;;;;;;;1.20;0.80;;;9.70;99.90;;;;;;5079448;28;20196;-85
2022/01/04 09:12:27;;;;;;;0.97;0.67;;;9.60;99.90;;;;;;5077749;28;20192;-84
2022/01/04 09:15:27;;;;;;;1.03;0.80;;;9.60;99.90;;;;;;5084204;28;20185;-84
2022/01/04 09:20:33;;;;;;;0.70;0.70;;;9.60;99.90;;;;;;5097433;28;20183;-78
2022/01/04 09:23:01;;;;;;;0.87;0.60;;;9.60;99.90;;;;;;5078535;28;20187;-84
2022/01/04 09:25:29;;;;;;;1.43;0.70;;;9.60;99.90;;;;;;5111277;28;20458;-80
2022/01/04 09:27:57;;;;;;;0.80;0.80;;;9.50;99.90;;;;;;5077350;28;20188;-78
2022/01/04 09:30:26;;;;;;;1.87;0.70;;;9.50;99.90;;;;;;5077513;28;20245;-87
2022/01/04 09:32:54;;;;;;;1.67;1.00;;;9.50;99.90;;;;;;5078621;28;20192;-84
2022/01/04 09:35:22;;;;;;;1.93;1.17;;;9.50;99.90;;;;;;5077463;28;20184;-81
2022/01/04 09:37:50;;;;;;;1.67;1.10;;;9.50;99.90;;;;;;5086318;28;20272;-83
2022/01/04 09:40:18;;;;;;;2.37;1.10;;;9.40;99.90;;;;;;5074659;28;20176;-86
2022/01/04 09:42:44;;;;;;;1.63;0.90;;;9.40;99.90;;;;;;5076137;28;20208;-86
2022/01/04 09:45:14;;;;;;;1.70;0.83;;;9.40;99.90;;;;;;5068786;28;20211;-84
2022/01/04 09:47:40;;;;;;;2.33;1.10;;;9.40;99.90;;;;;;5106398;27;20240;-83
2022/01/04 09:50:10;;;;;;;1.00;0.77;;;9.40;99.90;;;;;;5081498;28;20207;-82
2022/01/04 09:52:42;;;;;;;1.07;0.90;;;9.40;99.90;;;;;;5076503;28;20204;-82
2022/01/04 09:55:09;;;;;;;1.10;1.00;;;9.30;99.90;;;;;;5070473;28;20202;-82
2022/01/04 09:57:35;;;;;;;1.67;1.00;;;9.30;99.90;;;;;;5076524;28;20172;-82
2022/01/04 10:00:04;;;;;;;0.80;0.80;;;9.30;99.90;;;;;;5076386;28;20200;-84
2022/01/04 10:02:31;;;;;;;1.60;1.00;;;9.30;99.90;;;;;;5077452;28;20194;-88
2022/01/04 10:05:16;;;;;;;2.50;1.00;;;9.30;99.90;;;;;;5079714;28;20195;-84
2022/01/04 10:07:43;;;;;;;1.70;0.90;;;9.30;99.90;;;;;;5109612;28;20176;-88
2022/01/04 10:10:24;;;;;;;1.37;0.90;;;9.30;99.90;;;;;;5077197;28;20239;-90
2022/01/04 10:12:52;;;;;;;1.23;0.90;;;9.30;99.90;;;;;;5075674;28;20298;-89
2022/01/04 10:15:39;;;;;;;1.30;1.10;;;9.30;99.90;;;;;;5081281;28;20176;-84
2022/01/04 10:18:13;;;;;;;1.73;1.20;;;9.30;99.90;;;;;;5070019;28;20175;-90
2022/01/04 10:20:43;;;;;;;1.70;1.00;;;9.40;99.90;;;;;;5077290;28;20182;-91
2022/01/04 10:23:18;;;;;;;1.20;0.90;;;9.40;99.90;;;;;;5077869;28;20278;-91
2022/01/04 10:25:45;;;;;;;1.93;0.90;;;9.40;99.90;;;;;;5090329;28;20199;-85
2022/01/04 10:28:34;;;;;;;2.07;1.10;;;9.40;99.90;;;;;;5074717;28;20175;-90
2022/01/04 10:31:06;;;;;;;0.80;0.70;;;9.40;99.90;;;;;;5090565;28;20224;-86
2022/01/04 10:33:35;;;;;;;1.50;0.83;;;9.40;99.90;;;;;;5108321;28;20196;-83
2022/01/04 10:36:11;;;;;;;1.70;1.00;;;9.40;99.90;;;;;;5074331;28;20176;-88
2022/01/04 10:38:39;;;;;;;1.03;0.70;;;9.50;99.90;;;;;;5076759;28;20236;-89
2022/01/04 10:41:20;;;;;;;1.87;1.00;;;9.50;99.90;;;;;;5074208;28;20203;-77
2022/01/04 10:44:01;;;;;;;2.30;1.20;;;9.50;99.90;;;;;;5074231;28;20180;-76
2022/01/04 10:46:45;;;;;;;1.30;0.90;;;9.50;99.90;;;;;;5074143;28;20999;-76
2022/01/04 10:49:17;;;;;;;1.53;0.80;;;9.60;99.90;;;;;;5073777;28;20272;-76
2022/01/04 10:51:45;;;;;;;1.63;0.90;;;9.60;99.90;;;;;;5075176;28;20212;-76
2022/01/04 10:54:19;;;;;;;1.53;0.80;;;9.60;99.90;;;;;;5072664;28;20176;-82
2022/01/04 10:56:47;;;;;;;3.20;0.80;;;9.60;99.90;;;;;;5070719;28;20191;-82
2022/01/04 10:59:13;;;;;;;1.40;0.80;;;9.60;99.90;;;;;;5069581;28;20282;-78
2022/01/04 11:01:45;;;;;;;1.30;0.70;;;9.60;99.90;;;;;;5076553;28;20250;-84
2022/01/04 11:04:14;;;;;;;1.50;0.70;;;9.60;99.90;;;;;;5077829;28;20200;-80
2022/01/04 11:06:43;;;;;;;1.17;0.87;;;9.70;99.90;;;;;;5077085;28;20179;-86
2022/01/04 11:09:12;;;;;;;1.10;0.73;;;9.70;99.90;;;;;;5076606;28;20196;-79
2022/01/04 11:11:39;;;;;;;1.40;0.60;;;9.60;99.90;;;;;;5077769;28;20200;-94
2022/01/04 11:14:09;;;;;;;1.83;0.80;;;9.60;99.90;;;;;;5075775;28;20186;-86
2022/01/04 11:16:35;;;;;;;1.47;0.87;;;9.60;99.90;;;;;;5072419;28;20260;-93
2022/01/04 11:19:02;;;;;;;1.67;1.07;;;9.60;99.90;;;;;;5075837;28;20202;-89
2022/01/04 11:21:35;;;;;;;1.87;1.03;;;9.60;99.90;;;;;;5071010;28;20214;-91
2022/01/04 11:24:04;;;;;;;2.67;1.00;;;9.60;99.90;;;;;;5075113;28;20191;-84
2022/01/04 11:26:30;;;;;;;1.63;0.97;;;9.60;99.90;;;;;;5102992;28;20257;-78
2022/01/04 11:28:57;;;;;;;1.77;1.03;;;9.60;99.90;;;;;;5069351;28;20184;-78
2022/01/04 11:31:48;;;;;;;1.80;1.00;;;9.60;99.90;;;;;;5105195;28;20508;-78
2022/01/04 11:34:26;;;;;;;1.67;0.90;;;9.60;99.90;;;;;;5071222;28;20188;-78
2022/01/04 11:36:52;;;;;;;1.17;0.80;;;9.50;99.90;;;;;;5070548;28;20172;-79
2022/01/04 11:39:39;;;;;;;1.40;0.90;;;9.50;99.90;;;;;;5075902;28;20197;-79
2022/01/04 11:42:29;;;;;;;1.00;0.80;;;9.50;99.90;;;;;;5071435;28;20458;-76
2022/01/04 11:44:55;;;;;;;1.07;0.73;;;9.50;99.90;;;;;;5075472;28;20199;-76
2022/01/04 11:47:31;;;;;;;2.10;0.87;;;9.40;99.90;;;;;;5106346;28;20199;-79
2022/01/04 11:50:10;;;;;;;1.97;0.90;;;9.40;99.90;;;;;;5070420;28;20180;-80
2022/01/04 11:52:48;;;;;;;1.10;0.70;;;9.40;99.90;;;;;;5076234;28;20227;-72
2022/01/04 11:55:33;;;;;;;1.70;0.90;;;9.40;99.90;;;;;;5065699;28;20255;-77
2022/01/04 11:58:01;;;;;;;1.67;0.83;;;9.40;99.90;;;;;;5074050;28;20259;-79
2022/01/04 12:00:39;;;;;;;1.60;0.80;;;9.40;99.90;;;;;;5072908;28;20195;-75
2022/01/04 12:03:09;;;;;;;2.43;0.80;;;9.40;99.90;;;;;;5075918;28;20196;-78
2022/01/04 12:05:39;;;;;;;2.23;0.90;;;9.50;99.90;;;;;;5073755;28;20184;-76
2022/01/04 12:08:15;;;;;;;3.43;1.13;;;9.50;99.90;;;;;;5106461;28;20295;-79
2022/01/04 12:10:41;;;;;;;2.83;1.03;;;9.40;99.90;;;;;;5065682;28;20295;-78
2022/01/04 12:13:12;;;;;;;4.07;1.50;;;9.40;99.90;;;;;;5074977;28;20176;-78
2022/01/04 12:15:37;;;;;;;2.83;1.30;;;9.40;99.90;;;;;;5104695;28;20315;-78
2022/01/04 12:18:09;;;;;;;1.80;0.90;;;9.40;99.90;;;;;;5090084;28;20186;-76
2022/01/04 12:20:43;;;;;;;2.13;0.90;;;9.50;99.90;;;;;;5072776;28;20207;-78
2022/01/04 12:23:35;;;;;;;2.57;1.07;;;9.50;99.90;;;;;;5071355;28;20198;-79
2022/01/04 12:26:12;;;;;;;1.37;0.70;;;9.50;99.90;;;;;;5074898;28;20250;-75
2022/01/04 12:28:43;;;;;;;1.93;0.90;;;9.50;99.90;;;;;;5071332;28;20176;-78
2022/01/04 12:31:19;;;;;;;2.00;0.90;;;9.50;99.90;;;;;;5090617;28;20195;-76
2022/01/04 12:33:51;;;;;;;1.93;0.90;;;9.60;99.90;;;;;;5069085;28;20176;-78
2022/01/04 12:36:41;;;;;;;2.13;0.70;;;9.60;99.90;;;;;;5075400;28;20264;-75
2022/01/04 12:39:14;;;;;;;1.70;0.90;;;9.60;99.90;;;;;;5070713;28;20176;-75
2022/01/04 12:41:41;;;;;;;2.17;0.90;;;9.60;99.90;;;;;;5072578;28;20172;-79
2022/01/04 12:44:10;;;;;;;1.33;0.80;;;9.60;99.90;;;;;;5073924;28;20223;-77
2022/01/04 12:46:41;;;;;;;1.47;1.00;;;9.70;99.90;;;;;;5072704;28;20239;-76
2022/01/04 12:49:17;;;;;;;2.70;1.13;;;9.70;99.90;;;;;;5069648;28;20227;-81
2022/01/04 12:51:50;;;;;;;3.00;0.90;;;9.70;99.90;;;;;;5073438;28;20407;-78
2022/01/04 12:54:23;;;;;;;2.50;0.90;;;9.70;99.90;;;;;;5071527;28;20199;-79
2022/01/04 12:56:53;;;;;;;3.60;1.20;;;9.70;99.90;;;;;;5071734;28;20434;-76
2022/01/04 12:59:22;;;;;;;1.03;0.83;;;9.80;99.90;;;;;;5074501;28;20222;-80
2022/01/04 13:01:49;;;;;;;1.57;0.90;;;9.80;99.90;;;;;;5073613;28;20264;-80
2022/01/04 13:04:27;;;;;;;1.73;1.00;;;9.80;99.90;;;;;;5071052;28;20176;-80
2022/01/04 13:06:54;;;;;;;1.57;1.00;;;9.80;99.90;;;;;;5076319;28;20195;-74
2022/01/04 13:09:26;;;;;;;1.17;0.90;;;9.80;99.90;;;;;;5071166;28;20200;-79
2022/01/04 13:12:00;;;;;;;1.50;1.00;;;9.80;99.90;;;;;;5075834;28;20298;-79